createdAt,value
2023-02-06T00:01:40.197Z,102058.89
2023-02-06T00:04:08.643Z,102058.04
2023-02-06T00:06:42.086Z,102060.45
2023-02-06T00:09:10.542Z,102059.94
2023-02-06T00:11:42.220Z,102052.80
2023-02-06T00:14:10.494Z,102054.55
2023-02-06T00:16:58.589Z,102052.30
2023-02-06T00:19:27.715Z,102052.81
2023-02-06T00:21:56.383Z,102055.22
2023-02-06T00:24:24.565Z,102056.59
2023-02-06T00:26:53.612Z,102062.59
2023-02-06T00:29:21.947Z,102058.96
2023-02-06T00:31:50.495Z,102063.92
2023-02-06T00:34:18.738Z,102062.94
2023-02-06T00:36:47.032Z,102059.86
2023-02-06T00:39:15.587Z,102063.79
2023-02-06T00:41:44.368Z,102061.14
2023-02-06T00:44:12.752Z,102059.45
2023-02-06T00:46:42.307Z,102055.88
2023-02-06T00:49:10.991Z,102052.33
2023-02-06T00:51:40.006Z,102049.77
2023-02-06T00:54:09.408Z,102052.39
2023-02-06T00:56:38.622Z,102049.33
2023-02-06T00:59:06.826Z,102050.36
2023-02-06T01:01:35.140Z,102048.46
2023-02-06T01:04:03.480Z,102048.64
2023-02-06T01:06:45.983Z,102047.63
2023-02-06T01:09:14.235Z,102053.66
2023-02-06T01:11:42.555Z,102052.10
2023-02-06T01:14:11.006Z,102053.48
2023-02-06T01:16:39.363Z,102051.94
2023-02-06T01:19:07.868Z,102054.80
2023-02-06T01:21:36.524Z,102051.16
2023-02-06T01:24:05.844Z,102054.21
2023-02-06T01:26:34.019Z,102055.54
2023-02-06T01:29:03.078Z,102058.56
2023-02-06T01:31:32.016Z,102062.50
2023-02-06T01:34:01.214Z,102061.80
2023-02-06T01:36:29.502Z,102060.10
2023-02-06T01:38:58.115Z,102056.63
2023-02-06T01:41:26.411Z,102054.56
2023-02-06T01:44:13.566Z,102055.73
2023-02-06T01:46:44.118Z,102059.17
2023-02-06T01:49:18.706Z,102057.69
2023-02-06T01:51:46.903Z,102059.25
2023-02-06T01:54:15.284Z,102060.63
2023-02-06T01:56:47.967Z,102060.95
2023-02-06T01:59:16.341Z,102058.69
2023-02-06T02:01:45.040Z,102064.14
2023-02-06T02:04:16.774Z,102061.05
2023-02-06T02:06:47.282Z,102069.78
2023-02-06T02:09:15.435Z,102069.95
2023-02-06T02:11:43.692Z,102069.98
2023-02-06T02:14:13.656Z,102074.34
2023-02-06T02:17:06.739Z,102079.11
2023-02-06T02:19:43.897Z,102079.79
2023-02-06T02:22:27.340Z,102083.39
2023-02-06T02:25:26.846Z,102084.95
2023-02-06T02:28:10.346Z,102088.04
2023-02-06T02:31:16.458Z,102089.07
2023-02-06T02:33:59.789Z,102090.77
2023-02-06T02:36:34.368Z,102092.94
2023-02-06T02:39:09.160Z,102085.50
2023-02-06T02:41:45.488Z,102087.02
2023-02-06T02:44:28.174Z,102086.81
2023-02-06T02:46:58.228Z,102093.31
2023-02-06T02:49:29.171Z,102096.06
2023-02-06T02:51:57.923Z,102099.88
2023-02-06T02:54:26.600Z,102101.75
2023-02-06T02:56:56.955Z,102104.11
2023-02-06T02:59:29.242Z,102105.39
2023-02-06T03:02:04.613Z,102106.56
2023-02-06T03:04:54.155Z,102111.02
2023-02-06T03:07:35.798Z,102116.44
2023-02-06T03:10:23.045Z,102117.65
2023-02-06T03:12:54.602Z,102111.85
2023-02-06T03:15:32.468Z,102111.18
2023-02-06T03:18:12.169Z,102117.31
2023-02-06T03:20:42.514Z,102118.45
2023-02-06T03:23:12.937Z,102118.91
2023-02-06T03:25:42.801Z,102122.16
2023-02-06T03:28:19.153Z,102125.41
2023-02-06T03:30:49.173Z,102120.98
2023-02-06T03:33:17.807Z,102119.64
2023-02-06T03:35:46.757Z,102125.44
2023-02-06T03:38:15.147Z,102125.20
2023-02-06T03:40:44.677Z,102129.23
2023-02-06T03:43:18.693Z,102128.00
2023-02-06T03:45:52.335Z,102129.34
2023-02-06T03:48:27.405Z,102128.27
2023-02-06T03:50:56.388Z,102131.88
2023-02-06T03:53:24.949Z,102135.85
2023-02-06T03:55:55.244Z,102135.54
2023-02-06T03:58:24.604Z,102135.86
2023-02-06T04:00:53.384Z,102133.63
2023-02-06T04:03:22.957Z,102136.84
2023-02-06T04:05:51.209Z,102132.91
2023-02-06T04:08:22.992Z,102137.55
2023-02-06T04:10:51.481Z,102135.14
2023-02-06T04:13:20.650Z,102138.35
2023-02-06T04:15:49.565Z,102140.54
2023-02-06T04:18:18.216Z,102141.91
2023-02-06T04:20:46.349Z,102146.23
2023-02-06T04:23:14.892Z,102149.16
2023-02-06T04:25:43.056Z,102151.73
2023-02-06T04:28:11.294Z,102150.84
2023-02-06T04:30:43.617Z,102152.04
2023-02-06T04:33:12.100Z,102153.56
2023-02-06T04:35:41.365Z,102157.34
2023-02-06T04:38:10.221Z,102156.70
2023-02-06T04:40:38.532Z,102160.84
2023-02-06T04:43:07.298Z,102160.86
2023-02-06T04:45:35.881Z,102160.77
2023-02-06T04:48:04.412Z,102159.46
2023-02-06T04:50:34.493Z,102160.95
2023-02-06T04:53:02.993Z,102162.61
2023-02-06T04:55:31.284Z,102163.29
2023-02-06T04:57:59.487Z,102160.89
2023-02-06T05:00:28.015Z,102165.20
2023-02-06T05:02:56.458Z,102164.17
2023-02-06T05:05:24.675Z,102163.75
2023-02-06T05:07:53.636Z,102168.19
2023-02-06T05:10:21.969Z,102165.77
2023-02-06T05:12:53.658Z,102165.75
2023-02-06T05:15:22.205Z,102161.63
2023-02-06T05:17:51.975Z,102167.23
2023-02-06T05:20:20.390Z,102169.64
2023-02-06T05:22:50.212Z,102167.80
2023-02-06T05:25:18.640Z,102165.95
2023-02-06T05:27:47.234Z,102167.50
2023-02-06T05:30:16.808Z,102168.00
2023-02-06T05:32:45.229Z,102169.70
2023-02-06T05:35:13.333Z,102174.82
2023-02-06T05:37:41.769Z,102172.61
2023-02-06T05:40:13.182Z,102173.63
2023-02-06T05:42:41.705Z,102175.61
2023-02-06T05:45:09.965Z,102176.27
2023-02-06T05:47:41.237Z,102174.89
2023-02-06T05:50:11.879Z,102172.69
2023-02-06T05:52:40.682Z,102170.67
2023-02-06T05:55:09.317Z,102171.21
2023-02-06T05:57:38.571Z,102178.75
2023-02-06T06:00:07.508Z,102178.22
2023-02-06T06:02:42.141Z,102180.73
2023-02-06T06:05:10.364Z,102179.85
2023-02-06T06:07:40.525Z,102183.47
2023-02-06T06:10:09.129Z,102181.63
2023-02-06T06:12:37.566Z,102180.83
2023-02-06T06:15:06.511Z,102178.27
2023-02-06T06:17:35.770Z,102179.52
2023-02-06T06:20:05.166Z,102178.54
2023-02-06T06:22:34.622Z,102187.15
2023-02-06T06:25:05.229Z,102185.01
2023-02-06T06:27:33.993Z,102189.39
2023-02-06T06:30:02.292Z,102188.44
2023-02-06T06:32:30.770Z,102186.46
2023-02-06T10:32:44.769Z,102227.23
2023-02-06T10:35:29.536Z,102215.23
2023-02-06T10:37:59.189Z,102214.82
2023-02-06T10:40:41.435Z,102215.23
2023-02-06T10:43:19.430Z,102211.91
2023-02-06T10:45:53.933Z,102212.60
2023-02-06T10:48:28.745Z,102211.22
2023-02-06T10:51:09.275Z,102212.36
2023-02-06T10:53:41.847Z,102211.23
2023-02-06T10:56:15.421Z,102214.98
2023-02-06T10:58:50.485Z,102209.29
2023-02-06T11:01:26.114Z,102209.08
2023-02-06T11:04:34.820Z,102206.95
2023-02-06T11:07:06.958Z,102207.17
2023-02-06T11:09:36.008Z,102208.64
2023-02-06T11:12:05.256Z,102213.48
2023-02-06T11:14:36.363Z,102212.06
2023-02-06T11:17:04.544Z,102213.42
2023-02-06T11:19:41.922Z,102210.09
2023-02-06T11:22:12.914Z,102214.34
2023-02-06T11:25:00.334Z,102211.23
2023-02-06T11:27:29.279Z,102208.04
2023-02-06T11:29:58.077Z,102214.27
2023-02-06T11:32:40.840Z,102211.93
2023-02-06T11:35:41.518Z,102215.09
2023-02-06T11:38:20.700Z,102212.33
2023-02-06T11:41:17.423Z,102212.67
2023-02-06T11:43:49.693Z,102214.27
2023-02-06T11:46:25.633Z,102211.06
2023-02-06T11:48:58.673Z,102215.84
2023-02-06T11:51:27.255Z,102212.41
2023-02-06T11:54:05.342Z,102213.02
2023-02-06T11:56:33.735Z,102206.23
2023-02-06T11:59:07.030Z,102208.21
2023-02-06T12:01:46.500Z,102207.63
2023-02-06T12:04:26.434Z,102206.27
2023-02-06T12:06:59.558Z,102207.92
2023-02-06T12:09:27.842Z,102209.63
2023-02-06T12:12:05.616Z,102204.94
2023-02-06T12:14:46.401Z,102202.95
2023-02-06T12:17:55.624Z,102204.70
2023-02-06T12:20:31.957Z,102205.75
2023-02-06T12:23:26.080Z,102203.80
2023-02-06T12:25:57.073Z,102209.22
2023-02-06T12:28:26.825Z,102205.98
2023-02-06T12:31:00.167Z,102206.09
2023-02-06T12:33:36.274Z,102208.02
2023-02-06T12:36:11.673Z,102207.19
2023-02-06T12:39:20.650Z,102208.73
2023-02-06T12:42:07.988Z,102207.95
2023-02-06T12:44:50.094Z,102204.99
2023-02-06T12:47:33.626Z,102206.23
2023-02-06T12:50:14.591Z,102203.38
2023-02-06T12:52:59.627Z,102202.39
2023-02-06T12:56:03.942Z,102200.30
2023-02-06T12:58:42.559Z,102192.91
2023-02-06T13:02:05.408Z,102192.42
2023-02-06T13:04:34.470Z,102186.42
2023-02-06T13:07:14.736Z,102182.61
2023-02-06T13:10:05.021Z,102183.13
2023-02-06T13:12:33.354Z,102182.79
2023-02-06T13:15:21.563Z,102181.38
2023-02-06T13:17:52.758Z,102180.23
2023-02-06T13:20:25.276Z,102174.84
2023-02-06T13:23:16.128Z,102175.39
2023-02-06T13:25:44.356Z,102178.19
2023-02-06T13:28:21.956Z,102178.64
2023-02-06T13:31:01.954Z,102181.11
2023-02-06T13:34:03.161Z,102180.15
2023-02-06T13:36:50.200Z,102179.45
2023-02-06T13:39:27.203Z,102184.74
2023-02-06T13:41:55.978Z,102190.20
2023-02-06T13:44:37.002Z,102190.78
2023-02-06T13:47:25.128Z,102191.65
2023-02-06T13:50:19.533Z,102191.71
2023-02-06T13:53:02.380Z,102191.94
2023-02-06T13:55:49.416Z,102193.39
2023-02-06T13:58:40.089Z,102194.38
2023-02-06T14:01:26.047Z,102198.78
2023-02-06T14:03:55.497Z,102200.20
2023-02-06T14:06:29.854Z,102199.48
2023-02-06T14:09:17.321Z,102205.05
2023-02-06T14:12:32.713Z,102208.64
2023-02-06T14:15:02.510Z,102206.02
2023-02-06T14:17:57.150Z,102205.61
2023-02-06T14:20:28.792Z,102208.52
2023-02-06T14:23:20.506Z,102208.67
2023-02-06T14:26:01.949Z,102204.77
2023-02-06T14:28:33.263Z,102208.05
2023-02-06T14:31:01.638Z,102210.15
2023-02-06T14:33:45.057Z,102216.56
2023-02-06T14:36:58.177Z,102217.02
2023-02-06T14:39:34.519Z,102226.40
2023-02-06T14:42:27.201Z,102227.39
2023-02-06T14:45:01.300Z,102228.09
2023-02-06T14:47:31.924Z,102231.95
2023-02-06T14:50:00.363Z,102239.75
2023-02-06T14:52:29.942Z,102243.94
2023-02-06T14:54:58.253Z,102248.66
2023-02-06T14:57:31.125Z,102250.45
2023-02-06T15:00:01.606Z,102254.69
2023-02-06T15:02:33.126Z,102261.33
2023-02-06T15:05:02.359Z,102259.75
2023-02-06T15:07:36.226Z,102257.60
2023-02-06T15:10:11.188Z,102261.16
2023-02-06T15:12:40.098Z,102261.27
2023-02-06T15:15:16.284Z,102261.41
2023-02-06T15:17:58.906Z,102262.88
2023-02-06T15:20:33.603Z,102270.14
2023-02-06T15:23:16.875Z,102276.05
2023-02-06T15:26:04.283Z,102278.86
2023-02-06T15:28:34.015Z,102284.23
2023-02-06T15:31:02.797Z,102284.50
2023-02-06T15:33:33.202Z,102286.19
2023-02-06T15:36:03.491Z,102289.90
2023-02-06T15:38:33.108Z,102294.61
2023-02-06T15:41:04.244Z,102292.29
2023-02-06T15:43:33.223Z,102295.83
2023-02-06T15:46:05.029Z,102301.42
2023-02-06T15:48:55.064Z,102299.41
2023-02-06T15:51:28.189Z,102298.10
2023-02-06T15:54:18.758Z,102301.80
2023-02-06T15:56:54.934Z,102305.39
2023-02-06T15:59:25.526Z,102306.39
2023-02-06T16:01:55.774Z,102304.47
2023-02-06T16:04:27.075Z,102301.71
2023-02-06T16:07:05.902Z,102302.05
2023-02-06T16:24:16.679Z,102300.05
2023-02-06T16:26:52.253Z,102296.86
2023-02-06T16:29:27.017Z,102294.20
2023-02-06T16:32:00.203Z,102296.16
2023-02-06T16:34:31.560Z,102294.36
2023-02-06T16:37:00.318Z,102289.80
2023-02-06T16:39:28.722Z,102286.94
2023-02-06T16:41:57.188Z,102288.38
2023-02-06T16:44:36.015Z,102289.98
2023-02-06T16:47:16.465Z,102283.95
2023-02-06T19:25:49.463Z,102300.84
2023-02-06T19:28:17.736Z,102302.13
2023-02-06T19:30:46.144Z,102301.35
2023-02-06T19:33:15.144Z,102300.38
2023-02-06T19:35:44.352Z,102304.48
2023-02-06T19:38:12.641Z,102301.54
2023-02-06T19:40:41.148Z,102296.04
2023-02-06T19:43:09.423Z,102298.04
2023-02-06T19:45:38.169Z,102302.09
2023-02-06T19:48:12.209Z,102299.94
2023-02-06T19:50:43.217Z,102302.70
2023-02-06T19:53:18.954Z,102295.84
2023-02-06T19:55:47.984Z,102298.98
2023-02-06T19:58:16.169Z,102294.96
2023-02-06T20:00:44.906Z,102288.02
2023-02-06T20:03:15.523Z,102285.92
2023-02-06T20:05:44.553Z,102281.22
2023-02-06T20:08:12.850Z,102281.14
2023-02-06T20:10:43.927Z,102282.05
2023-02-06T20:13:12.125Z,102287.14
2023-02-06T20:15:40.481Z,102287.93
2023-02-06T20:18:08.678Z,102288.34
2023-02-06T20:20:38.052Z,102284.91
2023-02-06T20:23:07.296Z,102284.57
2023-02-06T20:25:38.449Z,102285.80
2023-02-06T20:28:09.622Z,102279.95
2023-02-06T20:30:42.190Z,102278.52
2023-02-06T20:33:10.602Z,102279.17
2023-02-06T20:35:44.680Z,102280.01
2023-02-06T20:38:13.870Z,102281.18
2023-02-06T20:40:49.062Z,102283.98
2023-02-06T20:43:17.269Z,102284.11
2023-02-06T20:45:46.041Z,102288.69
2023-02-06T20:48:16.866Z,102284.70
2023-02-06T20:50:47.948Z,102280.36
2023-02-06T20:53:16.182Z,102280.45
2023-02-06T20:55:44.381Z,102277.73
2023-02-06T20:58:12.521Z,102277.85
2023-02-06T21:00:40.856Z,102282.77
2023-02-06T21:03:09.057Z,102282.33
2023-02-06T21:05:39.473Z,102283.75
2023-02-06T21:08:08.293Z,102282.23
2023-02-06T21:10:39.077Z,102285.31
2023-02-06T21:13:07.390Z,102285.52
2023-02-06T21:15:36.271Z,102281.08
2023-02-06T21:18:04.614Z,102277.80
2023-02-06T21:20:32.855Z,102279.61
2023-02-06T21:23:01.401Z,102285.95
2023-02-06T21:25:31.049Z,102285.94
2023-02-06T21:27:59.493Z,102283.20
2023-02-06T21:30:27.712Z,102289.27
2023-02-06T21:32:56.345Z,102289.27
2023-02-06T21:35:24.614Z,102287.79
2023-02-06T21:37:53.162Z,102284.52
2023-02-06T21:40:21.703Z,102278.38
2023-02-06T21:42:49.883Z,102272.24
2023-02-06T21:45:18.270Z,102270.21
2023-02-06T21:47:46.471Z,102262.38
2023-02-06T21:50:14.747Z,102262.39
2023-02-06T21:52:43.412Z,102261.02
2023-02-06T21:55:12.819Z,102257.76
2023-02-06T21:57:41.354Z,102259.27
2023-02-06T22:00:10.471Z,102258.20
2023-02-06T22:02:41.614Z,102260.21
2023-02-06T22:05:09.886Z,102259.38
2023-02-06T22:07:38.663Z,102251.34
2023-02-06T22:10:08.134Z,102248.77
2023-02-06T22:12:39.334Z,102247.09
2023-02-06T22:15:10.166Z,102240.99
2023-02-06T22:17:41.598Z,102239.21
2023-02-06T22:20:10.287Z,102243.75
2023-02-06T22:22:39.661Z,102242.65
2023-02-06T22:25:09.218Z,102241.73
2023-02-06T22:27:39.681Z,102241.11
2023-02-06T22:30:08.306Z,102235.86
2023-02-06T22:32:38.401Z,102236.04
2023-02-06T22:35:06.983Z,102231.54
2023-02-06T22:37:35.405Z,102230.66
2023-02-06T22:40:03.923Z,102222.56
2023-02-06T22:42:33.806Z,102219.07
2023-02-06T22:45:02.857Z,102217.48
2023-02-06T22:47:32.942Z,102218.13
2023-02-06T22:50:01.276Z,102214.36
2023-02-06T22:52:48.207Z,102217.61
2023-02-06T22:55:16.478Z,102216.55
2023-02-06T22:57:44.803Z,102216.34
2023-02-06T23:00:14.946Z,102212.91
2023-02-06T23:02:44.085Z,102212.23
2023-02-06T23:05:12.198Z,102213.64
2023-02-06T23:07:40.741Z,102216.74
2023-02-06T23:10:09.121Z,102214.90
2023-02-06T23:12:37.324Z,102219.07
2023-02-06T23:15:07.664Z,102218.08
2023-02-06T23:17:37.294Z,102215.34
2023-02-06T23:20:07.233Z,102213.79
2023-02-06T23:22:36.376Z,102210.84
2023-02-06T23:25:04.721Z,102212.73
2023-02-06T23:27:33.008Z,102213.24
2023-02-06T23:30:01.605Z,102214.02
2023-02-06T23:32:30.691Z,102211.38
2023-02-06T23:35:00.123Z,102208.81
2023-02-06T23:37:28.388Z,102207.83
2023-02-06T23:39:56.578Z,102207.91
2023-02-06T23:42:24.808Z,102207.48
2023-02-06T23:44:52.983Z,102204.63
2023-02-06T23:47:21.763Z,102199.33
2023-02-06T23:49:50.057Z,102199.96
2023-02-06T23:52:18.592Z,102203.48
2023-02-06T23:54:47.216Z,102202.93
2023-02-06T23:57:15.593Z,102203.62
2023-02-06T23:59:44.473Z,102207.48
